Presidente Prudente Airport

SBDN · São Paulo, Brazylia

Historia METAR SBDN · Presidente Prudente Airport

Poniżej widzisz METAR-y z ostatnich kilku dni. Wybierz rok, aby przeglądać starsze METAR-y, począwszy od roku 2007.

25 maja 2024

Czas Kod Pogoda Temp. Widoczność Sufit Wiatr METAR/SPECI
22:00
V
16 °C 10 km+ 7.000 ft 240° 240° 4 kt METAR SBDN 260100Z 24004KT 9999 FEW045 OVC070 16/13 Q1020
21:00
M
16 °C 6 km 4.500 ft 220° 220° 6 kt METAR SBDN 260000Z 22006KT 6000 -RA BKN045 OVC070 16/13 Q1021
20:00
V
17 °C 10 km+ 4.000 ft 220° 220° 5 kt METAR SBDN 252300Z 22005KT 9999 BKN040 OVC076 17/12 Q1020
19:00
V
18 °C 10 km+ 7.600 ft 210° 210° 3 kt METAR SBDN 252200Z 21003KT 9999 SCT043 BKN076 18/13 Q1020
18:00
V
18 °C 10 km+ 7.000 ft 240° 240° 4 kt METAR SBDN 252100Z 24004KT 9999 SCT036 BKN070 18/13 Q1020
17:00
M
19 °C 10 km+ 2.600 ft 240° 240° 5 kt METAR SBDN 252000Z 24005KT 9999 BKN026 19/13 Q1019
16:00
M
19 °C 10 km+ 2.400 ft 250° 250° 5 kt METAR SBDN 251900Z 25005KT 9999 OVC024 19/13 Q1019
15:00
M
19 °C 10 km+ 2.600 ft 260° 260° 4 kt METAR SBDN 251800Z 26004KT 9999 OVC026 19/13 Q1019
14:00
M
19 °C 10 km+ 2.300 ft 240° 240° 6 kt METAR SBDN 251700Z 24006KT 9999 OVC023 19/13 Q1020
13:00
M
19 °C 10 km+ 2.000 ft 230° 230° 4 kt METAR SBDN 251600Z 23004KT 9999 OVC020 19/12 Q1020
12:00
M
18 °C 10 km+ 2.000 ft 190° 190° 5 kt METAR SBDN 251500Z 19005KT 9999 OVC020 18/12 Q1021
11:00
M
18 °C 10 km+ 2.000 ft 200° 200° 6 kt METAR SBDN 251400Z 20006KT 9999 OVC020 18/12 Q1021
10:00
M
17 °C 10 km+ 2.000 ft 220° 220° 7 kt METAR SBDN 251300Z 22007KT 9999 FEW013 BKN020 17/12 Q1022
09:00
M
16 °C 10 km+ 2.500 ft 220° 220° 8 kt METAR SBDN 251200Z 22008KT 9999 SCT008 BKN025 16/12 Q1021
08:00
M
15 °C 10 km+ 2.500 ft 230° 230° 9 kt METAR SBDN 251100Z 23009KT 9999 FEW008 BKN025 15/12 Q1021
07:00
V
15 °C 10 km+ - 230° 230° 6 kt METAR SBDN 251000Z 23006KT 9999 FEW010 SCT025 15/12 Q1020
06:00
M
15 °C 10 km+ 2.500 ft 250° 250° 4 kt METAR SBDN 250900Z 25004KT 9999 FEW011 OVC025 15/13 Q1019
05:00
M
16 °C 10 km+ 2.500 ft 220° 220° 5 kt METAR SBDN 250800Z 22005KT 9999 FEW015 OVC025 16/13 Q1019
04:00
M
16 °C 10 km+ 2.500 ft 230° 230° 6 kt METAR SBDN 250700Z 23006KT 9999 OVC025 16/12 Q1018
03:00
M
16 °C 10 km+ 2.300 ft 200° 200° 8 kt METAR SBDN 250600Z 20008KT 9999 FEW013 OVC023 16/13 Q1018
02:00
M
17 °C 10 km+ 2.300 ft 220° 220° 9 kt METAR SBDN 250500Z 22009KT 9999 SCT013 OVC023 17/13 Q1018
01:00
M
17 °C 10 km+ 2.300 ft 230° 230° 7 kt METAR SBDN 250400Z 23007KT 9999 FEW013 OVC023 17/14 Q1018
00:00
M
17 °C 10 km+ 2.300 ft 220° 220° 5 kt METAR SBDN 250300Z 22005KT 9999 SCT009 OVC023 17/13 Q1018

24 maja 2024

Czas Kod Pogoda Temp. Widoczność Sufit Wiatr METAR/SPECI
23:00
M
18 °C 10 km+ 1.900 ft 230° 230° 10 kt METAR SBDN 250200Z 23010KT 9999 SCT009 OVC019 18/15 Q1018
22:00
M
18 °C 10 km+ 1.900 ft 220° 220° 8 kt METAR SBDN 250100Z 22008KT 9999 FEW010 OVC019 18/15 Q1018
21:00
I
18 °C 10 km+ 900 ft 210° 210° 9 kt METAR SBDN 250000Z 21009KT 9999 OVC009 18/15 Q1018
20:00
I
19 °C 4 km 500 ft 220° 220° 10 kt METAR SBDN 242300Z 22010KT 4000 -DZ OVC005 19/16 Q1017
19:00
I
20 °C 10 km+ 800 ft 220° 220° 9 kt METAR SBDN 242200Z 22009KT 9999 BKN008 SCT020 20/17 Q1017
18:00
I
20 °C 10 km+ 600 ft 220° 220° 10 kt METAR SBDN 242100Z 22010KT 9999 BKN006 BKN015 20/18 Q1016
17:00
M
22 °C 10 km+ 1.500 ft 260° 260° 7 kt METAR SBDN 242000Z 26007KT 9999 BKN015 22/18 Q1016
16:00
M
22 °C 10 km+ 1.900 ft 290° 290° 5 kt METAR SBDN 241900Z 29005KT 9999 BKN019 22/18 Q1015
15:00
M
22 °C 10 km+ 1.700 ft 270° 270° 6 kt METAR SBDN 241800Z 27006KT 9999 BKN017 22/18 Q1016
14:00
V
23 °C 10 km+ - 030° 030° 6 kt METAR SBDN 241700Z 03006KT 9999 FEW011 SCT100 23/18 Q1016
13:00
I
21 °C 10 km+ 700 ft 010° 010° 6 kt METAR SBDN 241600Z 01006KT 9999 BKN007 21/18 Q1016
12:00
V
19 °C 10 km+ - 040° 040° 8 kt METAR SBDN 241500Z 04008KT 9999 SCT004 SCT060 19/18 Q1017
11:00
V
20 °C 10 km+ 5.000 ft 050° 050° 5 kt METAR SBDN 241400Z 05005KT 9999 FEW008 BKN050 20/18 Q1018
10:00
M
19 °C 6 km 5.500 ft 090° 090° 2 kt METAR SBDN 241300Z 09002KT 6000 -RA SCT008 BKN055 19/17 Q1018 RETSRA
09:00
I
20 °C 2 km 800 ft 240° 240° 7 kt METAR SBDN 241200Z 24007KT 2000 TSRA BKN008 BKN045CB OVC070 20/17 Q1019
08:00
V
21 °C 10 km+ 8.000 ft 160° 160° 5 kt METAR SBDN 241100Z 16005KT 9999 FEW060TCU BKN080 21/17 Q1016
07:00
V
21 °C 10 km+ 7.600 ft 150° 150° 7 kt METAR SBDN 241000Z 15007KT 9999 FEW060TCU BKN076 21/16 Q1015
06:00
V
22 °C 10 km+ - 200° 200° 4 kt METAR SBDN 240900Z 20004KT CAVOK 22/14 Q1014
05:00
V
23 °C 10 km+ - 340° 340° 4 kt METAR SBDN 240800Z 34004KT CAVOK 23/13 Q1013
04:00
V
23 °C 10 km+ - 360° 360° 0 kt METAR SBDN 240700Z 00000KT CAVOK 23/13 Q1012
03:00
V
24 °C 10 km+ - 010° 010° 6 kt METAR SBDN 240600Z 01006KT CAVOK 24/13 Q1013
02:00
V
25 °C 10 km+ - 030° 030° 8 kt METAR SBDN 240500Z 03008KT CAVOK 25/13 Q1013
01:00
V
25 °C 10 km+ - 020° 020° 8 kt METAR SBDN 240400Z 02008KT CAVOK 25/14 Q1013
00:00
V
26 °C 10 km+ - 020° 020° 8 kt METAR SBDN 240300Z 02008KT CAVOK 26/14 Q1013

23 maja 2024

Czas Kod Pogoda Temp. Widoczność Sufit Wiatr METAR/SPECI
23:00
V
26 °C 10 km+ - 020° 020° 7 kt METAR SBDN 240200Z 02007KT CAVOK 26/14 Q1014
22:00
V
26 °C 10 km+ - 020° 020° 7 kt METAR SBDN 240100Z 02007KT CAVOK 26/15 Q1014
21:00
V
28 °C 10 km+ - 020° 020° 8 kt METAR SBDN 240000Z 02008KT CAVOK 28/15 Q1013
20:00
V
28 °C 10 km+ - 030° 030° 6 kt METAR SBDN 232300Z 03006KT CAVOK 28/15 Q1013
19:00
V
28 °C 10 km+ - 020° 020° 5 kt METAR SBDN 232200Z 02005KT CAVOK 28/15 Q1013
18:00
V
30 °C 10 km+ - 350° 350° 2 kt METAR SBDN 232100Z 35002KT CAVOK 30/15 Q1013
17:00
V
32 °C 10 km+ - 360° 360° 6 kt METAR SBDN 232000Z 36006KT CAVOK 32/16 Q1012
16:00
V
33 °C 10 km+ - 350° 350° 6 kt METAR SBDN 231900Z 35006KT CAVOK 33/16 Q1013
15:00
V
34 °C 10 km+ - 360° 360° 8 kt METAR SBDN 231800Z 36008KT CAVOK 34/16 Q1013
14:00
V
33 °C 10 km+ - 010° 010° 10 kt METAR SBDN 231700Z 01010KT CAVOK 33/16 Q1014
13:00
V
33 °C 10 km+ - 350° 350° 8 kt METAR SBDN 231600Z 35008KT CAVOK 33/16 Q1015
12:00
V
31 °C 10 km+ - 010° 010° 11 kt METAR SBDN 231500Z 01011KT CAVOK 31/16 Q1016
11:00
V
28 °C 10 km+ - 020° 020° 9 kt METAR SBDN 231400Z 02009KT CAVOK 28/16 Q1017
10:00
V
26 °C 10 km+ - 020° 020° 9 kt METAR SBDN 231300Z 02009KT CAVOK 26/15 Q1017
09:00
V
24 °C 10 km+ - 040° 040° 7 kt METAR SBDN 231200Z 04007KT CAVOK 24/14 Q1017
08:00
V
22 °C 10 km+ - 060° 060° 5 kt METAR SBDN 231100Z 06005KT CAVOK 22/13 Q1017
07:00
V
20 °C 10 km+ - 060° 060° 8 kt METAR SBDN 231000Z 06008KT CAVOK 20/12 Q1016
06:00
V
21 °C 10 km+ - 060° 060° 7 kt METAR SBDN 230900Z 06007KT CAVOK 21/12 Q1015
05:00
V
21 °C 10 km+ - 060° 060° 6 kt METAR SBDN 230800Z 06006KT CAVOK 21/12 Q1015
04:00
V
22 °C 10 km+ - 060° 060° 8 kt METAR SBDN 230700Z 06008KT CAVOK 22/12 Q1015
03:00
V
22 °C 10 km+ - 060° 060° 7 kt METAR SBDN 230600Z 06007KT CAVOK 22/12 Q1015
Zgłoś zmianę